Time;durP1;ratioP1;P1;durP2;ratioP2;P2;SDS_P1;SDS_P2;PMS_P1;PMS_P2;Temp;Humidity;BMP_temperature;BMP_pressure;BME280_temperature;BME280_humidity;BME280_pressure;Samples;Min_cycle;Max_cycle;Signal;HPM_P1;HPM_P2
2022/08/07 00:01:18;;;;;;;20.25;12.70;;;;;;;22.22;63.01;100054.44;4929612;29;20084;-80
2022/08/07 00:04:07;;;;;;;19.55;13.60;;;;;;;22.35;63.26;100097.34;4929714;29;20075;-80
2022/08/07 00:06:42;;;;;;;19.52;13.90;;;;;;;22.37;63.29;100092.84;4929239;29;20055;-80
2022/08/07 00:09:21;;;;;;;23.00;14.52;;;;;;;22.32;63.68;100089.47;4930137;29;20056;-80
2022/08/07 00:12:02;;;;;;;20.50;14.25;;;;;;;22.19;63.65;100078.44;4930117;29;20063;-79
2022/08/07 00:14:30;;;;;;;18.80;14.43;;;;;;;21.83;63.96;100012.56;4929204;29;20290;-80
2022/08/07 00:17:00;;;;;;;;;;;;;;;21.97;63.92;100085.59;4930536;29;20056;-80
2022/08/07 00:19:30;;;;;;;19.52;14.35;;;;;;;22.02;64.82;100088.91;4928970;29;19994;-80
2022/08/07 00:22:19;;;;;;;22.95;14.35;;;;;;;21.93;64.91;100076.00;4917310;29;20498;-80
2022/08/07 00:25:05;;;;;;;19.80;14.88;;;;;;;21.96;65.19;100082.06;4916941;29;20451;-79
2022/08/07 00:27:45;;;;;;;20.63;14.57;;;;;;;21.68;65.24;100075.19;4917059;29;20056;-80
2022/08/07 00:30:21;;;;;;;21.13;15.52;;;;;;;21.89;65.33;100091.19;4905994;29;20067;-79
2022/08/07 00:32:58;;;;;;;22.00;14.13;;;;;;;21.83;65.50;100089.66;4916450;29;20091;-79
2022/08/07 00:35:29;;;;;;;20.10;14.48;;;;;;;21.41;65.58;100013.31;4899955;29;20054;-80
2022/08/07 00:38:04;;;;;;;21.73;14.57;;;;;;;21.83;65.46;100094.09;4916762;29;20115;-80
2022/08/07 00:40:32;;;;;;;18.83;14.23;;;;;;;21.62;65.44;100050.63;4916461;29;20087;-80
2022/08/07 00:43:10;;;;;;;21.13;14.38;;;;;;;21.82;65.59;100087.91;4916511;29;20048;-79
2022/08/07 00:46:00;;;;;;;21.95;14.50;;;;;;;21.78;65.66;100086.28;4896386;29;20064;-79
2022/08/07 00:48:31;;;;;;;25.30;14.95;;;;;;;21.55;65.76;100046.47;4897340;29;20056;-80
2022/08/07 00:50:59;;;;;;;24.65;15.65;;;;;;;21.71;66.06;100108.75;4897425;29;20060;-80
2022/08/07 00:53:28;;;;;;;21.63;14.37;;;;;;;21.70;65.87;100106.13;4897272;29;20570;-79
2022/08/07 00:56:17;;;;;;;19.48;13.95;;;;;;;21.43;65.95;100059.31;4912094;29;20059;-80
2022/08/07 00:58:46;;;;;;;18.15;12.82;;;;;;;21.31;65.98;100030.50;4897328;29;20056;-79
2022/08/07 01:01:17;;;;;;;19.77;13.25;;;;;;;21.63;66.15;100086.91;4897301;29;20056;-79
2022/08/07 01:03:48;;;;;;;16.35;13.77;;;;;;;21.59;66.08;100082.63;4897222;29;20142;-80
2022/08/07 01:06:28;;;;;;;21.48;14.18;;;;;;;21.54;66.12;100089.91;4897376;29;20053;-80
2022/08/07 01:09:01;;;;;;;23.70;13.80;;;;;;;21.54;66.08;100079.28;4911941;29;20060;-80
2022/08/07 01:11:30;;;;;;;23.17;14.20;;;;;;;21.61;66.20;100088.75;4928741;29;20060;-79
2022/08/07 01:14:20;;;;;;;19.30;13.63;;;;;;;21.33;66.18;100044.59;4930890;29;20103;-80
2022/08/07 01:16:58;;;;;;;19.00;13.90;;;;;;;21.45;66.19;100089.34;4916467;29;20048;-80
2022/08/07 01:19:31;;;;;;;18.40;14.13;;;;;;;21.57;66.07;100095.97;4930952;29;20091;-79
2022/08/07 01:22:01;;;;;;;18.35;13.05;;;;;;;21.59;66.19;100103.88;4931574;29;20056;-80
2022/08/07 01:24:38;;;;;;;23.73;14.23;;;;;;;21.49;66.01;100071.50;4899335;29;20067;-80
2022/08/07 01:27:07;;;;;;;20.77;14.05;;;;;;;21.19;66.13;100025.69;4916475;29;20056;-80
2022/08/07 01:29:56;;;;;;;20.83;14.43;;;;;;;21.54;66.17;100095.25;4930684;29;20104;-80
2022/08/07 01:32:29;;;;;;;20.33;14.20;;;;;;;21.52;66.23;100089.13;4931955;29;20068;-80
2022/08/07 01:35:01;;;;;;;22.77;13.48;;;;;;;21.53;66.06;100091.72;4902840;29;20056;-80
2022/08/07 01:37:32;;;;;;;19.85;13.18;;;;;;;21.54;66.08;100093.44;4919286;29;20056;-80
2022/08/07 01:40:05;;;;;;;18.08;13.20;;;;;;;21.29;65.96;100045.63;4902128;29;20437;-79
2022/08/07 01:42:50;;;;;;;22.93;13.33;;;;;;;21.44;65.91;100092.91;4934262;29;20055;-80
2022/08/07 01:45:32;;;;;;;17.52;13.48;;;;;;;21.42;65.88;100067.31;4919295;29;20066;-80
2022/08/07 01:48:14;;;;;;;17.65;12.57;;;;;;;21.52;65.87;100103.25;4920716;29;20052;-80
2022/08/07 01:50:56;;;;;;;18.23;13.43;;;;;;;21.48;65.63;100075.91;4943023;29;20056;-79
2022/08/07 01:53:28;;;;;;;16.15;12.20;;;;;;;21.56;65.49;100090.72;4933534;29;20493;-79
2022/08/07 01:56:26;;;;;;;17.08;12.68;;;;;;;21.57;65.48;100092.44;4933964;29;20147;-79
2022/08/07 01:59:13;;;;;;;17.63;13.35;;;;;;;21.57;65.54;100079.16;4949709;28;20064;-79
2022/08/07 02:01:52;;;;;;;19.58;12.98;;;;;;;21.66;65.27;100085.00;4918799;29;20048;-79
2022/08/07 02:04:43;;;;;;;23.55;13.32;;;;;;;21.70;65.15;100090.19;4933618;29;20056;-79
2022/08/07 02:07:36;;;;;;;21.63;13.82;;;;;;;21.67;65.08;100080.53;4949058;29;20056;-81
2022/08/07 02:10:31;;;;;;;20.23;14.60;;;;;;;21.56;64.95;100045.53;4949511;29;20154;-79
2022/08/07 02:13:24;;;;;;;24.48;14.63;;;;;;;21.74;65.03;100086.47;4931207;29;20558;-79
2022/08/07 02:16:17;;;;;;;22.35;15.45;;;;;;;21.77;65.21;100081.91;4949625;29;20075;-79
2022/08/07 02:18:56;;;;;;;21.98;15.35;;;;;;;21.75;64.89;100066.97;4918834;29;20056;-79
2022/08/07 02:21:25;;;;;;;27.65;17.98;;;;;;;21.64;64.70;100032.81;4949166;29;20063;-80
2022/08/07 02:24:16;;;;;;;31.70;21.38;;;;;;;21.86;64.68;100086.00;4933272;29;20078;-79
2022/08/07 02:26:46;;;;;;;28.08;19.73;;;;;;;21.74;64.41;100059.91;4933062;29;20099;-79
2022/08/07 02:29:16;;;;;;;31.77;21.30;;;;;;;21.90;64.33;100058.38;4918956;29;20063;-80
2022/08/07 02:31:50;;;;;;;30.55;18.88;;;;;;;21.94;64.32;100067.06;4925777;29;20060;-79
2022/08/07 02:34:21;;;;;;;32.55;18.92;;;;;;;22.09;63.74;100082.41;4937192;29;20107;-79
2022/08/07 02:36:56;;;;;;;32.10;18.05;;;;;;;22.14;63.47;100067.13;4937241;29;20091;-79
2022/08/07 02:39:28;;;;;;;27.25;17.67;;;;;;;22.28;63.22;100067.47;4952480;29;20051;-79
2022/08/07 02:42:18;;;;;;;28.02;17.77;;;;;;;22.29;62.84;100060.34;4936324;29;20118;-79
2022/08/07 02:44:52;;;;;;;27.48;16.20;;;;;;;22.42;62.81;100066.03;4935180;29;20094;-80
2022/08/07 02:47:27;;;;;;;26.40;17.73;;;;;;;22.44;62.18;100073.00;4938532;29;20052;-79
2022/08/07 02:50:15;;;;;;;27.02;18.00;;;;;;;22.56;61.93;100068.94;4952746;29;20142;-80
2022/08/07 02:53:03;;;;;;;23.77;16.58;;;;;;;22.79;61.06;100067.09;4937641;29;20055;-79
2022/08/07 02:55:40;;;;;;;23.98;14.85;;;;;;;23.09;60.02;100072.88;4952882;29;20083;-79
2022/08/07 02:58:32;;;;;;;25.63;16.40;;;;;;;24.68;54.88;100029.63;4952241;29;20060;-80
2022/08/07 03:01:05;;;;;;;27.05;16.38;;;;;;;26.44;50.10;100047.53;4936053;29;20070;-79
2022/08/07 03:03:47;;;;;;;24.63;16.45;;;;;;;27.81;46.65;100065.00;4936663;29;20083;-79
2022/08/07 03:06:26;;;;;;;27.88;16.60;;;;;;;28.79;44.03;100078.13;4935780;29;20083;-79
2022/08/07 03:09:06;;;;;;;25.55;15.68;;;;;;;29.67;42.26;100069.28;4935664;29;20051;-79
2022/08/07 03:11:39;;;;;;;25.73;16.30;;;;;;;30.26;40.54;100057.72;4950974;29;20090;-79
2022/08/07 03:14:33;;;;;;;24.02;15.68;;;;;;;31.30;38.66;100081.19;4935478;29;20561;-80
2022/08/07 03:17:05;;;;;;;24.25;16.15;;;;;;;31.93;36.75;100038.28;4951374;29;20062;-79
2022/08/07 03:19:38;;;;;;;25.10;15.55;;;;;;;32.67;35.83;100075.34;4919437;29;20055;-80
2022/08/07 03:22:09;;;;;;;25.58;16.80;;;;;;;33.35;34.62;100091.16;4958735;29;20471;-79
2022/08/07 03:24:49;;;;;;;;;;;;;;;33.83;36.10;100082.34;4966503;29;20107;-79
2022/08/07 03:27:20;;;;;;;20.60;14.02;;;;;;;32.61;35.43;100078.56;4966433;29;19965;-79
2022/08/07 03:30:04;;;;;;;21.00;15.10;;;;;;;30.48;39.32;100077.69;4955655;29;20561;-79
2022/08/07 03:32:41;;;;;;;20.77;14.38;;;;;;;29.15;41.63;100073.03;4947138;29;20064;-79
2022/08/07 03:35:29;;;;;;;17.85;12.05;;;;;;;29.31;41.72;100087.09;4932053;29;20056;-79
2022/08/07 03:38:19;;;;;;;14.80;10.80;;;;;;;31.90;36.67;100081.75;4931530;29;20056;-80
2022/08/07 03:41:00;;;;;;;16.38;10.07;;;;;;;33.80;32.88;100071.81;4916209;29;20605;-80
2022/08/07 03:43:33;;;;;;;11.15;8.80;;;;;;;34.94;30.95;100036.84;4931847;29;20056;-80
2022/08/07 03:46:05;;;;;;;14.95;8.88;;;;;;;35.98;29.38;100037.44;4949957;29;20511;-80
2022/08/07 03:48:50;;;;;;;14.38;8.82;;;;;;;36.85;28.11;100073.94;4932202;29;20143;-80
2022/08/07 03:51:40;;;;;;;12.32;8.25;;;;;;;37.36;27.31;100067.78;4931936;29;20052;-80
2022/08/07 03:54:22;;;;;;;14.20;8.35;;;;;;;37.60;26.40;100057.03;4920904;29;20052;-79
2022/08/07 03:57:12;;;;;;;12.82;7.43;;;;;;;37.74;26.12;100057.41;4917572;29;20071;-79
2022/08/07 04:00:01;;;;;;;13.65;7.22;;;;;;;37.71;26.03;100036.78;4932204;29;20471;-79
2022/08/07 04:02:43;;;;;;;12.38;7.28;;;;;;;37.04;26.74;100069.28;4917233;29;20146;-79
2022/08/07 04:05:24;;;;;;;13.98;6.85;;;;;;;35.00;30.03;100044.34;4931345;29;20518;-80
2022/08/07 04:08:22;;;;;;;11.65;7.07;;;;;;;33.02;32.69;100058.78;4899928;29;20483;-80
2022/08/07 04:10:53;;;;;;;18.60;7.20;;;;;;;31.92;34.54;100069.00;4899548;29;20111;-80
2022/08/07 04:13:45;;;;;;;10.60;7.07;;;;;;;31.09;35.73;100072.97;4934161;29;20064;-80
2022/08/07 04:16:36;;;;;;;10.15;6.53;;;;;;;30.47;36.76;100057.97;4918744;29;20076;-79
2022/08/07 04:19:12;;;;;;;12.07;6.90;;;;;;;29.83;37.46;100020.56;4933633;29;20052;-79
2022/08/07 04:21:49;;;;;;;9.82;7.15;;;;;;;30.00;37.90;100076.72;4932989;29;20533;-80
2022/08/07 04:24:41;;;;;;;15.65;7.07;;;;;;;29.60;38.96;100078.78;4932121;29;20067;-79
2022/08/07 04:27:13;;;;;;;10.40;6.70;;;;;;;29.40;39.28;100064.94;4931672;29;20061;-80
2022/08/07 04:30:06;;;;;;;8.65;6.03;;;;;;;29.27;39.03;100055.16;4919143;29;20086;-80
2022/08/07 04:32:49;;;;;;;10.35;6.70;;;;;;;29.22;39.46;100077.00;4930722;29;20159;-79
2022/08/07 04:35:29;;;;;;;;;;;;;;;28.88;40.18;100063.19;4932115;29;20139;-79
2022/08/07 04:38:08;;;;;;;14.35;7.05;;;;;;;28.94;40.05;100072.66;4931154;29;19969;-79
2022/08/07 04:40:47;;;;;;;9.65;6.18;;;;;;;28.82;40.40;100049.31;4931407;29;20052;-79
2022/08/07 04:43:34;;;;;;;7.85;6.60;;;;;;;28.73;40.63;100067.81;4931212;29;20056;-80
2022/08/07 04:46:38;;;;;;;12.73;7.00;;;;;;;28.62;40.98;100080.28;4931041;29;20056;-79
2022/08/07 04:50:38;;;;;;;9.50;6.57;;;;;;;28.57;41.51;100075.22;4931336;29;20058;-80
2022/08/07 04:53:24;;;;;;;9.43;6.32;;;;;;;28.68;41.50;100072.66;4817105;29;20062;-80
2022/08/07 04:56:20;;;;;;;11.63;6.53;;;;;;;28.88;40.80;100078.47;4836384;29;20158;-80
2022/08/07 04:59:34;;;;;;;10.85;6.80;;;;;;;28.69;41.31;100071.66;4927428;29;20104;-80
2022/08/07 05:02:34;;;;;;;9.80;6.60;;;;;;;28.62;41.77;100065.00;4916403;29;20175;-81
2022/08/07 05:05:17;;;;;;;;;;;;;;;28.41;42.17;100071.81;4931022;29;20490;-80
2022/08/07 05:08:17;;;;;;;9.60;6.50;;;;;;;28.51;42.21;100054.16;4933797;29;19962;-80
2022/08/07 05:11:13;;;;;;;10.55;6.10;;;;;;;28.51;42.12;100059.50;4936975;29;20452;-80
2022/08/07 05:13:59;;;;;;;13.55;6.80;;;;;;;28.50;42.26;100052.41;4919566;29;20146;-80
2022/08/07 05:16:53;;;;;;;11.15;7.00;;;;;;;28.68;42.46;100063.75;4934266;29;20064;-80
2022/08/07 05:19:24;;;;;;;12.90;6.60;;;;;;;28.61;42.37;100032.84;4919806;29;20063;-79
2022/08/07 05:22:15;;;;;;;9.65;6.40;;;;;;;28.62;42.32;100059.63;4934174;29;20060;-80
2022/08/07 05:25:00;;;;;;;9.15;6.07;;;;;;;28.66;42.22;100069.22;4933826;29;20095;-79
2022/08/07 05:27:39;;;;;;;11.18;5.88;;;;;;;28.83;41.92;100068.03;4934075;29;20079;-80
2022/08/07 05:30:28;;;;;;;11.90;5.97;;;;;;;28.62;42.00;100064.16;4933819;29;20059;-80
2022/08/07 05:33:04;;;;;;;11.82;6.10;;;;;;;28.34;41.99;100033.75;4933694;29;20052;-79
2022/08/07 05:35:37;;;;;;;10.02;6.15;;;;;;;28.41;42.59;100056.53;4918534;29;20450;-80
2022/08/07 05:38:14;;;;;;;16.05;6.55;;;;;;;28.72;42.44;100063.41;4934370;29;20067;-79
2022/08/07 05:41:03;;;;;;;10.70;6.43;;;;;;;28.69;41.88;100025.97;4935254;29;20086;-79
2022/08/07 05:43:45;;;;;;;11.55;6.47;;;;;;;29.11;41.54;100069.69;4937094;29;20495;-79
2022/08/07 05:46:37;;;;;;;8.48;5.82;;;;;;;29.09;40.76;100036.66;4931725;29;20521;-80
2022/08/07 05:49:08;;;;;;;7.18;5.53;;;;;;;29.38;40.74;100061.50;4919126;29;20052;-79
2022/08/07 05:51:43;;;;;;;8.02;5.57;;;;;;;29.36;40.92;100066.13;4935736;29;20048;-79
2022/08/07 05:54:20;;;;;;;6.93;5.45;;;;;;;29.49;40.94;100065.22;4902710;29;20048;-79
2022/08/07 05:57:14;;;;;;;10.25;6.28;;;;;;;29.86;40.02;100068.81;4933760;29;20071;-79
2022/08/07 05:59:46;;;;;;;10.20;5.80;;;;;;;29.82;39.88;100083.47;4918807;29;20151;-79
2022/08/07 06:02:32;;;;;;;13.38;5.80;;;;;;;29.50;39.80;100042.72;4919048;29;20052;-79
2022/08/07 06:05:10;;;;;;;6.95;5.00;;;;;;;29.81;39.78;100087.13;4933291;29;20052;-80
2022/08/07 06:07:50;;;;;;;7.60;5.57;;;;;;;29.88;39.86;100085.72;4932966;29;20056;-79
2022/08/07 06:10:41;;;;;;;9.90;5.40;;;;;;;30.05;39.24;100067.44;4933126;29;20056;-80
2022/08/07 06:13:11;;;;;;;6.72;4.93;;;;;;;30.16;39.38;100073.75;4933487;29;20060;-79
2022/08/07 06:15:45;;;;;;;9.10;4.95;;;;;;;30.11;38.55;100048.13;4933512;29;20059;-80
2022/08/07 06:18:24;;;;;;;10.55;4.97;;;;;;;30.11;38.76;100075.91;4943398;29;20064;-79
2022/08/07 06:20:59;;;;;;;10.35;4.97;;;;;;;29.81;38.67;100022.50;4919027;29;20052;-79
2022/08/07 06:23:48;;;;;;;7.80;5.00;;;;;;;29.99;38.63;100074.16;4932916;29;20470;-80
2022/08/07 06:26:41;;;;;;;9.13;4.63;;;;;;;29.88;38.67;100048.03;4918357;29;20060;-79
2022/08/07 06:29:10;;;;;;;13.77;6.03;;;;;;;30.11;39.01;100078.59;4933000;29;20138;-79
2022/08/07 06:31:38;;;;;;;11.48;5.35;;;;;;;30.11;38.31;100065.13;4932285;29;20123;-80
2022/08/07 06:34:24;;;;;;;6.40;5.15;;;;;;;30.10;38.26;100059.88;4933410;29;20107;-80
2022/08/07 06:36:58;;;;;;;7.32;5.05;;;;;;;30.28;37.72;100080.06;4932664;29;20064;-81
2022/08/07 06:39:37;;;;;;;6.85;5.40;;;;;;;30.28;37.64;100063.00;4932453;29;20422;-80
2022/08/07 06:42:36;;;;;;;11.10;4.90;;;;;;;30.23;37.51;100059.81;4932596;29;20485;-80
2022/08/07 06:45:19;;;;;;;6.80;4.78;;;;;;;30.24;37.90;100075.84;4901295;29;20056;-80
2022/08/07 06:47:55;;;;;;;11.25;4.63;;;;;;;30.31;37.22;100068.19;4932524;29;20092;-79
2022/08/07 06:50:35;;;;;;;10.15;4.55;;;;;;;30.35;37.01;100066.97;4932872;29;20063;-80
2022/08/07 06:53:14;;;;;;;7.95;4.95;;;;;;;30.45;36.92;100029.44;4932719;29;20091;-80
2022/08/07 06:56:08;;;;;;;7.68;4.72;;;;;;;31.14;35.76;100056.41;4932134;29;20079;-80
2022/08/07 06:58:48;;;;;;;9.45;5.10;;;;;;;31.43;34.80;100059.50;4916435;29;20056;-81
2022/08/07 07:01:43;;;;;;;9.38;4.65;;;;;;;31.54;34.35;100058.63;4932174;29;20153;-80
2022/08/07 07:04:19;;;;;;;9.88;4.90;;;;;;;31.81;34.00;100071.69;4916418;29;20059;-79
2022/08/07 07:07:02;;;;;;;8.95;4.72;;;;;;;31.89;34.09;100058.44;4917419;29;20082;-79
2022/08/07 07:09:51;;;;;;;11.18;4.50;;;;;;;32.12;33.66;100061.97;4931848;29;20103;-79
2022/08/07 07:12:34;;;;;;;6.65;4.47;;;;;;;31.85;33.69;100065.06;4932009;29;20111;-80
2022/08/07 07:15:18;;;;;;;10.73;4.63;;;;;;;31.57;34.29;100063.78;4917930;29;20048;-79
2022/08/07 07:18:12;;;;;;;7.63;4.60;;;;;;;31.30;35.19;100062.31;4917545;29;20525;-80
2022/08/07 07:21:12;;;;;;;6.60;4.57;;;;;;;31.01;35.27;100038.50;4917735;29;20084;-79
2022/08/07 07:23:53;;;;;;;7.55;5.05;;;;;;;30.91;35.42;100055.53;4917573;29;20198;-80
2022/08/07 07:26:44;;;;;;;8.95;4.65;;;;;;;30.87;35.50;100059.44;4905181;29;20148;-80
2022/08/07 07:29:26;;;;;;;9.82;4.70;;;;;;;30.75;35.64;100072.88;4917273;29;20147;-79
2022/08/07 07:32:17;;;;;;;9.73;4.80;;;;;;;30.73;36.17;100063.19;4916965;29;20060;-79
2022/08/07 07:34:48;;;;;;;9.38;4.50;;;;;;;30.67;35.87;100074.44;4899430;29;20434;-79
2022/08/07 07:37:20;;;;;;;6.57;4.35;;;;;;;30.52;36.11;100057.59;4917200;29;20095;-79
2022/08/07 07:40:14;;;;;;;10.15;4.57;;;;;;;30.66;36.05;100067.34;4919614;29;20051;-80
2022/08/07 07:42:45;;;;;;;9.60;5.05;;;;;;;30.41;35.89;100035.03;4918921;29;20059;-80
2022/08/07 07:45:27;;;;;;;10.60;5.03;;;;;;;30.49;36.32;100039.84;4917152;29;20052;-79
2022/08/07 07:48:21;;;;;;;11.90;5.50;;;;;;;31.04;35.71;100050.91;4918074;29;20091;-80
2022/08/07 07:51:06;;;;;;;6.22;4.43;;;;;;;31.55;34.66;100033.34;4916948;29;20059;-79
2022/08/07 07:53:40;;;;;;;7.30;4.93;;;;;;;32.04;34.23;100040.97;4917244;29;20098;-79
2022/08/07 07:56:23;;;;;;;7.85;5.05;;;;;;;32.16;33.63;100046.31;4917704;29;20147;-80
2022/08/07 07:59:01;;;;;;;6.20;4.55;;;;;;;31.98;33.72;100048.72;4931333;29;20520;-80
2022/08/07 08:01:30;;;;;;;5.35;4.55;;;;;;;31.82;33.68;100030.22;4917683;29;20522;-80
2022/08/07 08:04:22;;;;;;;5.30;4.32;;;;;;;31.60;34.41;100042.78;4928873;29;20120;-79
2022/08/07 08:06:55;;;;;;;6.18;5.13;;;;;;;31.91;33.77;100037.56;4916823;29;20058;-79
2022/08/07 08:09:36;;;;;;;6.60;4.00;;;;;;;31.75;33.00;100002.88;4924203;29;20059;-78
2022/08/07 08:12:25;;;;;;;5.88;4.05;;;;;;;31.86;32.83;100053.28;4927865;29;20143;-79
2022/08/07 08:15:15;;;;;;;7.63;4.43;;;;;;;32.01;32.61;100038.53;4929396;29;20059;-79
2022/08/07 08:17:50;;;;;;;8.88;4.20;;;;;;;32.26;32.09;100025.66;4918327;29;20056;-80
2022/08/07 08:20:32;;;;;;;6.07;4.25;;;;;;;32.41;32.07;100045.13;4916822;29;20075;-80
2022/08/07 08:28:49;;;;;;;5.53;4.00;;;;;;;32.01;31.85;100025.03;4916369;29;20108;-80
2022/08/07 08:31:27;;;;;;;8.73;4.20;;;;;;;31.87;32.39;100019.88;4931578;29;20066;-80
2022/08/07 08:34:19;;;;;;;9.63;4.20;;;;;;;31.99;32.16;100029.72;4904201;29;20065;-80
2022/08/07 08:36:56;;;;;;;8.10;4.10;;;;;;;32.11;32.16;100030.50;4916319;29;20062;-80
2022/08/07 08:39:27;;;;;;;8.93;3.90;;;;;;;32.10;31.64;100023.41;4916265;29;20502;-80
2022/08/07 08:42:17;;;;;;;8.57;4.25;;;;;;;32.03;32.22;100017.66;4900878;29;20103;-80
2022/08/07 08:45:42;;;;;;;9.68;4.28;;;;;;;32.13;31.87;100015.03;4920146;29;20100;-80
2022/08/07 08:48:55;;;;;;;15.90;4.72;;;;;;;32.08;31.93;100002.91;4879934;29;20595;-80
2022/08/07 08:51:56;;;;;;;9.10;4.25;;;;;;;32.11;31.91;100013.44;4880372;29;20530;-80
2022/08/07 08:54:52;;;;;;;6.87;3.70;;;;;;;32.10;31.58;100007.19;4934624;29;20507;-79
2022/08/07 08:57:36;;;;;;;9.80;4.50;;;;;;;32.11;31.12;100003.50;4920039;29;20100;-80
2022/08/07 09:00:09;;;;;;;7.93;3.90;;;;;;;32.10;30.54;99973.91;4919823;29;20055;-80
2022/08/07 09:03:10;;;;;;;7.35;4.10;;;;;;;32.12;30.85;99972.78;4919771;29;20138;-79
2022/08/07 09:06:05;;;;;;;10.38;3.92;;;;;;;32.32;30.50;99995.41;4905185;29;20063;-79
2022/08/07 09:08:56;;;;;;;10.68;4.10;;;;;;;32.42;30.21;99954.94;4919724;29;20056;-79
2022/08/07 09:11:41;;;;;;;12.93;4.10;;;;;;;32.54;29.67;99982.78;4919533;29;20082;-79
2022/08/07 09:14:33;;;;;;;8.90;3.80;;;;;;;32.72;29.86;100001.94;4919948;29;20513;-78
2022/08/07 09:17:43;;;;;;;7.55;3.90;;;;;;;32.61;30.03;100002.88;4938252;29;20067;-80
2022/08/07 09:20:41;;;;;;;9.43;4.18;;;;;;;32.49;30.04;99995.81;4938534;29;20082;-80
2022/08/07 09:23:30;;;;;;;6.15;4.00;;;;;;;32.21;30.30;99972.00;4938330;29;20059;-79
2022/08/07 09:26:28;;;;;;;7.53;4.60;;;;;;;32.40;30.46;99992.91;4938404;29;20043;-79
2022/08/07 09:29:17;;;;;;;10.15;4.97;;;;;;;32.56;30.21;99959.16;4937966;29;20086;-80
2022/08/07 09:32:22;;;;;;;6.55;3.67;;;;;;;33.10;29.16;99962.56;4937847;29;20249;-81
2022/08/07 09:35:13;;;;;;;6.70;3.80;;;;;;;33.13;29.17;99924.44;4953179;29;20132;-79
2022/08/07 09:38:10;;;;;;;7.82;3.90;;;;;;;33.86;28.74;99981.84;4937736;29;20374;-82
2022/08/07 09:41:06;;;;;;;7.75;4.47;;;;;;;33.80;28.62;99964.31;4955589;29;20079;-79
2022/08/07 09:44:07;;;;;;;7.93;3.92;;;;;;;33.33;29.01;99961.34;4941429;29;20047;-80
2022/08/07 09:47:11;;;;;;;4.38;3.53;;;;;;;33.16;29.28;99952.03;4948990;29;20052;-81
2022/08/07 09:50:07;;;;;;;6.95;3.80;;;;;;;33.07;29.11;99985.34;4953866;29;20196;-84
2022/08/07 09:52:52;;;;;;;7.55;3.83;;;;;;;32.92;29.37;99979.41;4939096;29;20059;-80
2022/08/07 09:55:31;;;;;;;6.53;3.58;;;;;;;32.73;29.75;99992.84;4953548;29;20055;-81
2022/08/07 09:58:52;;;;;;;18.55;4.68;;;;;;;32.44;31.74;99963.78;4937562;29;20517;-81
2022/08/07 10:01:29;;;;;;;18.05;5.22;;;;;;;32.15;34.17;99979.78;4892859;29;20425;-81
2022/08/07 10:04:27;;;;;;;10.63;4.18;;;;;;;31.94;33.16;99979.72;4937332;29;20478;-86
2022/08/07 10:07:21;;;;;;;8.65;4.40;;;;;;;31.94;33.75;99958.97;4937737;28;20103;-83
2022/08/07 10:10:42;;;;;;;8.88;4.22;;;;;;;32.03;33.36;99960.09;4937522;29;20084;-80
2022/08/07 10:14:01;;;;;;;11.73;4.55;;;;;;;32.00;34.16;99960.31;4933515;29;20094;-79
2022/08/07 10:16:45;;;;;;;12.02;5.13;;;;;;;32.29;34.80;99955.16;4937582;29;20058;-83
2022/08/07 10:19:35;;;;;;;6.60;4.70;;;;;;;32.41;35.17;99947.81;4935769;29;20493;-82
2022/08/07 10:22:24;;;;;;;8.25;4.70;;;;;;;32.51;34.28;99912.75;4936973;29;20068;-82
2022/08/07 10:25:10;;;;;;;6.38;4.28;;;;;;;33.07;34.08;99946.63;4936977;29;20052;-84
2022/08/07 10:28:09;;;;;;;13.75;4.50;;;;;;;32.79;32.94;99886.84;4936650;28;20062;-84
2022/08/07 10:31:10;;;;;;;7.60;4.43;;;;;;;33.05;33.37;99934.03;4951561;29;20066;-83
2022/08/07 10:34:19;;;;;;;11.40;4.68;;;;;;;32.97;32.75;99935.72;4910348;29;20113;-82
2022/08/07 10:37:04;;;;;;;7.93;4.45;;;;;;;33.14;31.68;99942.34;4918259;28;20498;-80
2022/08/07 10:39:50;;;;;;;6.40;3.95;;;;;;;33.43;30.63;99935.16;4912257;28;20056;-81
2022/08/07 10:42:42;;;;;;;7.65;3.83;;;;;;;33.61;29.33;99935.34;4898002;29;20060;-83
2022/08/07 10:45:30;;;;;;;6.32;3.95;;;;;;;33.68;29.12;99922.09;4899448;29;20060;-85
2022/08/07 10:48:47;;;;;;;6.63;4.28;;;;;;;33.63;29.20;99919.81;4903010;29;20147;-78
2022/08/07 10:51:22;;;;;;;5.10;4.50;;;;;;;33.71;29.14;99934.50;4899123;29;20056;-81
2022/08/07 10:54:15;;;;;;;7.55;4.03;;;;;;;33.69;28.99;99928.34;4898974;29;20100;-80
2022/08/07 10:57:13;;;;;;;4.85;4.00;;;;;;;33.71;28.96;99920.94;4899098;29;20049;-81
2022/08/07 11:00:03;;;;;;;4.68;4.00;;;;;;;33.60;28.44;99928.25;4899221;29;20056;-81
2022/08/07 11:02:51;;;;;;;9.27;4.68;;;;;;;33.68;28.06;99929.38;4899332;29;20057;-82
2022/08/07 11:05:49;;;;;;;10.77;4.72;;;;;;;33.59;28.00;99918.38;4898794;29;20052;-82
2022/08/07 11:08:25;;;;;;;6.72;3.75;;;;;;;33.46;27.84;99915.91;4898605;29;20061;-81
2022/08/07 11:11:12;;;;;;;7.22;4.30;;;;;;;33.44;27.90;99914.34;4898870;29;20060;-81
2022/08/07 11:13:48;;;;;;;10.82;4.43;;;;;;;33.39;27.52;99908.53;4899037;29;20057;-83
2022/08/07 11:16:58;;;;;;;10.80;4.45;;;;;;;33.25;27.89;99905.19;4898971;29;20155;-80
2022/08/07 11:19:43;;;;;;;11.55;6.90;;;;;;;33.52;27.87;99902.84;4927213;29;20072;-81
2022/08/07 11:22:34;;;;;;;9.63;4.57;;;;;;;33.66;27.18;99910.53;4899093;29;20511;-81
2022/08/07 11:25:29;;;;;;;6.85;3.97;;;;;;;33.68;27.21;99886.03;4898320;29;20535;-80
2022/08/07 11:28:09;;;;;;;11.10;4.25;;;;;;;33.66;26.68;99905.13;4898149;29;20056;-82
2022/08/07 11:31:19;;;;;;;8.02;3.95;;;;;;;33.57;26.65;99901.38;4898540;29;20053;-83
2022/08/07 11:34:14;;;;;;;9.25;4.13;;;;;;;33.78;26.44;99912.13;4900762;29;20104;-84
2022/08/07 11:37:04;;;;;;;9.50;4.05;;;;;;;33.82;26.28;99902.72;4917445;29;20183;-82
2022/08/07 11:40:05;;;;;;;6.53;3.88;;;;;;;33.76;25.73;99902.44;4900349;29;20052;-82
2022/08/07 11:42:46;;;;;;;4.80;3.70;;;;;;;33.76;25.53;99899.72;4917335;29;20079;-80
2022/08/07 11:45:29;;;;;;;6.45;3.67;;;;;;;33.67;25.79;99911.44;4917026;29;20095;-79
2022/08/07 11:48:21;;;;;;;5.75;3.90;;;;;;;33.59;25.75;99902.13;4916804;29;20062;-82
2022/08/07 11:51:16;;;;;;;5.65;3.53;;;;;;;33.72;25.57;99904.56;4916877;29;20055;-80
2022/08/07 11:54:36;;;;;;;6.35;3.70;;;;;;;33.61;25.42;99904.72;4917142;29;20136;-83
2022/08/07 11:57:30;;;;;;;5.20;3.85;;;;;;;33.60;25.46;99898.44;4921331;29;20063;-84
2022/08/07 12:00:37;;;;;;;7.15;3.70;;;;;;;33.52;25.53;99897.41;4916364;29;20060;-80
2022/08/07 12:03:31;;;;;;;5.63;3.88;;;;;;;33.57;25.27;99898.69;4931363;29;20064;-83
2022/08/07 12:06:28;;;;;;;8.32;4.30;;;;;;;33.60;25.54;99884.03;4896701;29;20059;-80
2022/08/07 12:09:14;;;;;;;9.15;3.63;;;;;;;33.45;25.21;99892.56;4931657;29;20066;-79
2022/08/07 12:12:10;;;;;;;7.07;3.53;;;;;;;33.23;25.28;99853.09;4917996;29;20063;-80
2022/08/07 12:15:00;;;;;;;7.78;3.72;;;;;;;33.47;25.06;99884.28;4917963;29;20056;-81
2022/08/07 12:18:10;;;;;;;5.88;3.20;;;;;;;33.51;25.36;99885.72;4886213;29;20131;-82
2022/08/07 12:21:07;;;;;;;6.57;3.65;;;;;;;33.54;24.92;99879.19;4931719;29;20091;-81
2022/08/07 12:24:01;;;;;;;9.23;4.88;;;;;;;33.64;24.83;99880.91;4920030;29;20060;-81
2022/08/07 12:26:58;;;;;;;5.10;3.30;;;;;;;33.70;24.61;99878.63;4932247;29;20059;-81
2022/08/07 12:29:42;;;;;;;5.95;3.90;;;;;;;33.52;24.33;99841.41;4937473;29;20178;-82
2022/08/07 12:32:27;;;;;;;6.57;3.20;;;;;;;33.68;24.27;99853.53;4935357;29;20559;-80
2022/08/07 12:35:01;;;;;;;5.70;3.42;;;;;;;33.85;24.41;99890.72;4953269;28;20089;-83
2022/08/07 12:37:34;;;;;;;6.05;3.50;;;;;;;33.78;24.08;99868.78;4936032;29;20447;-82
2022/08/07 12:40:29;;;;;;;6.60;3.42;;;;;;;33.90;24.20;99883.00;4936265;29;20060;-81
2022/08/07 12:43:17;;;;;;;6.30;3.33;;;;;;;33.83;24.12;99868.34;4937458;29;20485;-80
2022/08/07 12:46:21;;;;;;;4.13;2.90;;;;;;;33.76;23.72;99876.19;4936896;29;20051;-81
2022/08/07 12:49:07;;;;;;;7.28;3.40;;;;;;;34.00;23.85;99883.00;4936279;28;20554;-80
2022/08/07 12:52:03;;;;;;;7.90;3.58;;;;;;;34.22;23.33;99892.69;4935859;29;20142;-81